createdAt,value
2019-01-04T00:03:48.699Z,24.77
2019-01-04T00:08:52.778Z,25.27
2019-01-04T00:13:57.107Z,25.90
2019-01-04T00:19:01.208Z,25.27
2019-01-04T00:24:05.238Z,25.43
2019-01-04T00:29:09.865Z,25.47
2019-01-04T00:34:14.176Z,27.93
2019-01-04T00:39:18.254Z,26.77
2019-01-04T00:44:25.609Z,26.40
2019-01-04T00:49:29.978Z,27.90
2019-01-04T00:54:34.667Z,27.17
2019-01-04T01:00:07.832Z,28.43
2019-01-04T01:05:49.196Z,27.03
2019-01-04T01:11:23.651Z,28.13
2019-01-04T01:16:58.298Z,27.77
2019-01-04T01:22:34.982Z,28.83
2019-01-04T01:28:16.806Z,28.50
2019-01-04T01:33:34.836Z,27.70
2019-01-04T01:38:54.281Z,27.77
2019-01-04T01:44:30.093Z,27.40
2019-01-04T01:50:15.417Z,27.43
2019-01-04T01:55:19.776Z,29.43
2019-01-04T02:00:24.482Z,28.13
2019-01-04T02:05:28.849Z,28.37
2019-01-04T02:10:33.209Z,27.10
2019-01-04T02:15:37.793Z,27.00
2019-01-04T02:20:42.171Z,26.73
2019-01-04T02:25:46.524Z,26.97
2019-01-04T02:30:50.934Z,25.70
2019-01-04T02:35:55.005Z,26.97
2019-01-04T02:40:59.687Z,27.90
2019-01-04T02:46:04.047Z,27.87
2019-01-04T02:51:08.415Z,29.40
2019-01-04T02:56:12.484Z,26.73
2019-01-04T03:01:16.519Z,26.50
2019-01-04T03:06:21.162Z,26.37
2019-01-04T03:11:25.559Z,26.73
2019-01-04T03:16:30.242Z,28.87
2019-01-04T03:21:34.889Z,27.07
2019-01-04T03:26:39.285Z,26.60
2019-01-04T03:31:43.867Z,26.87
2019-01-04T03:36:48.235Z,28.37
2019-01-04T03:41:52.841Z,31.50
2019-01-04T03:46:57.749Z,34.30
2019-01-04T03:52:01.822Z,35.37
2019-01-04T03:57:06.473Z,33.27
2019-01-04T04:02:10.826Z,33.47
2019-01-04T04:07:15.180Z,33.03
2019-01-04T04:12:19.538Z,34.83
2019-01-04T04:17:23.577Z,32.70
2019-01-04T04:22:28.017Z,33.73
2019-01-04T04:27:32.050Z,33.38
2019-01-04T04:32:36.730Z,33.70
2019-01-04T04:37:41.375Z,34.27
2019-01-04T04:42:45.974Z,33.83
2019-01-04T04:47:50.037Z,34.10
2019-01-04T04:52:54.363Z,34.98
2019-01-04T04:57:59.018Z,33.90
2019-01-04T05:03:03.101Z,33.63
2019-01-04T05:08:07.409Z,33.73
2019-01-04T05:13:11.496Z,34.67
2019-01-04T05:18:16.163Z,33.53
2019-01-04T05:23:20.539Z,34.77
2019-01-04T05:28:24.616Z,34.73
2019-01-04T05:33:28.949Z,33.80
2019-01-04T05:38:33.367Z,33.67
2019-01-04T05:43:37.689Z,34.07
2019-01-04T05:48:42.051Z,35.00
2019-01-04T05:53:46.724Z,33.40
2019-01-04T05:58:50.825Z,34.17
2019-01-04T06:03:55.509Z,34.20
2019-01-04T06:08:59.928Z,33.57
2019-01-04T06:14:04.290Z,34.67
2019-01-04T06:19:08.356Z,34.93
2019-01-04T06:24:12.695Z,33.93
2019-01-04T06:29:16.732Z,33.17
2019-01-04T06:34:21.061Z,35.90
2019-01-04T06:39:25.151Z,36.40
2019-01-04T06:44:29.165Z,38.07
2019-01-04T06:49:33.491Z,38.77
2019-01-04T06:55:17.883Z,39.80
2019-01-04T07:00:22.532Z,39.97
2019-01-04T07:05:26.898Z,43.53
2019-01-04T07:10:30.974Z,42.90
2019-01-04T07:15:35.382Z,42.10
2019-01-04T07:20:39.585Z,38.65
2019-01-04T07:25:43.622Z,38.80
2019-01-04T07:30:48.237Z,36.77
2019-01-04T07:35:52.590Z,34.87
2019-01-04T07:40:57.043Z,41.35
2019-01-04T07:46:01.119Z,32.10
2019-01-04T07:51:05.151Z,31.20
2019-01-04T07:56:09.828Z,29.43
2019-01-04T08:01:13.888Z,28.60
2019-01-04T08:06:18.218Z,28.80
2019-01-04T08:11:22.583Z,29.40
2019-01-04T08:16:28.101Z,29.00
2019-01-04T08:21:32.168Z,28.97
2019-01-04T08:26:36.491Z,29.90
2019-01-04T08:31:40.858Z,29.73
2019-01-04T08:36:44.924Z,30.83
2019-01-04T08:41:49.240Z,32.77
2019-01-04T08:46:53.631Z,35.50
2019-01-04T08:51:57.992Z,36.20
2019-01-04T08:57:02.364Z,36.13
2019-01-04T09:02:07.007Z,34.93
2019-01-04T09:07:11.376Z,35.07
2019-01-04T09:12:15.745Z,33.90
2019-01-04T09:17:19.842Z,31.93
2019-01-04T09:22:24.455Z,30.50
2019-01-04T09:27:28.809Z,29.80
2019-01-04T09:32:33.170Z,29.47
2019-01-04T09:37:37.883Z,28.30
2019-01-04T09:42:42.334Z,26.63
2019-01-04T09:47:46.949Z,25.73
2019-01-04T09:52:51.040Z,24.80
2019-01-04T09:57:55.825Z,25.17
2019-01-04T10:03:00.159Z,23.10
2019-01-04T10:08:04.514Z,22.33
2019-01-04T10:13:08.876Z,21.77
2019-01-04T10:18:13.248Z,22.97
2019-01-04T10:23:17.601Z,22.27
2019-01-04T10:28:21.942Z,23.97
2019-01-04T10:33:26.632Z,23.40
2019-01-04T10:38:30.702Z,23.83
2019-01-04T10:43:35.267Z,21.57
2019-01-04T10:48:39.635Z,20.00
2019-01-04T10:53:43.735Z,25.47
2019-01-04T10:58:48.291Z,20.57
2019-01-04T11:03:52.362Z,18.93
2019-01-04T11:08:56.704Z,19.80
2019-01-04T11:14:01.116Z,21.17
2019-01-04T11:19:05.478Z,22.77
2019-01-04T11:24:15.514Z,22.90
2019-01-04T11:29:39.112Z,25.13
2019-01-04T11:35:12.346Z,24.57
2019-01-04T11:40:45.301Z,25.23
2019-01-04T11:46:00.462Z,26.33
2019-01-04T11:51:13.686Z,26.13
2019-01-04T11:56:18.027Z,26.10
2019-01-04T12:01:22.389Z,24.10
2019-01-04T12:06:27.238Z,19.57
2019-01-04T12:11:31.402Z,17.07
2019-01-04T12:16:35.728Z,15.77
2019-01-04T12:21:40.120Z,15.73
2019-01-04T12:26:44.171Z,16.97
2019-01-04T12:31:49.299Z,15.77
2019-01-04T12:36:53.400Z,17.67
2019-01-04T12:41:57.447Z,18.00
2019-01-04T12:47:01.487Z,20.40
2019-01-04T12:52:05.543Z,22.63
2019-01-04T12:57:09.581Z,22.63
2019-01-04T13:02:13.633Z,23.60
2019-01-04T13:07:17.656Z,21.70
2019-01-04T13:12:22.300Z,21.87
2019-01-04T13:17:28.810Z,21.77
2019-01-04T13:22:33.431Z,21.07
2019-01-04T13:27:37.804Z,21.27
2019-01-04T13:32:42.171Z,21.20
2019-01-04T13:37:46.524Z,20.27
2019-01-04T13:42:50.902Z,19.87
2019-01-04T13:47:54.989Z,22.57
2019-01-04T13:52:59.028Z,22.60
2019-01-04T13:58:03.059Z,23.42
2019-01-04T14:03:07.359Z,25.57
2019-01-04T14:08:12.048Z,29.90
2019-01-04T14:13:16.414Z,25.80
2019-01-04T14:18:20.781Z,26.43
2019-01-04T14:23:28.815Z,25.00
2019-01-04T14:28:31.759Z,25.30
2019-01-04T14:33:36.142Z,25.53
2019-01-04T14:38:40.317Z,27.15
2019-01-04T14:43:44.364Z,28.67
2019-01-04T14:48:48.398Z,36.97
2019-01-04T14:53:53.015Z,37.47
2019-01-04T14:58:57.418Z,30.67
2019-01-04T15:04:01.784Z,28.37
2019-01-04T15:09:07.034Z,28.63
2019-01-04T15:14:11.370Z,29.30
2019-01-04T15:19:15.744Z,29.83
2019-01-04T15:24:20.118Z,25.23
2019-01-04T15:29:24.192Z,23.57
2019-01-04T15:34:28.516Z,24.87
2019-01-04T15:39:32.596Z,25.67
2019-01-04T15:44:36.621Z,28.93
2019-01-04T15:49:40.952Z,28.53
2019-01-04T15:54:45.340Z,29.30
2019-01-04T15:59:50.663Z,31.37
2019-01-04T16:04:54.772Z,33.00
2019-01-04T16:09:58.857Z,33.13
2019-01-04T16:15:02.971Z,34.83
2019-01-04T16:20:10.867Z,35.88
2019-01-04T16:25:16.868Z,36.28
2019-01-04T16:30:20.918Z,36.40
2019-01-04T16:35:25.278Z,34.98
2019-01-04T16:40:29.664Z,36.70
2019-01-04T16:45:34.359Z,35.93
2019-01-04T16:50:38.438Z,40.33
2019-01-04T16:55:42.793Z,36.63
2019-01-04T17:00:47.189Z,35.83
2019-01-04T17:05:51.283Z,36.63
2019-01-04T17:10:55.434Z,36.63
2019-01-04T17:15:59.480Z,39.90
2019-01-04T17:21:03.851Z,42.47
2019-01-04T17:26:07.933Z,42.17
2019-01-04T17:31:11.984Z,39.93
2019-01-04T17:36:16.299Z,40.30
2019-01-04T17:41:20.715Z,42.07
2019-01-04T17:46:24.836Z,43.33
2019-01-04T17:51:29.255Z,42.03
2019-01-04T17:56:33.632Z,40.37
2019-01-04T18:01:38.083Z,40.90
2019-01-04T18:06:42.180Z,40.87
2019-01-04T18:11:47.418Z,38.35
2019-01-04T18:16:51.523Z,37.30
2019-01-04T18:21:56.152Z,38.50
2019-01-04T18:27:00.244Z,36.33
2019-01-04T18:32:09.068Z,38.33
2019-01-04T18:37:13.936Z,38.10
2019-01-04T18:42:18.060Z,37.80
2019-01-04T18:47:22.523Z,38.10
2019-01-04T18:52:26.907Z,37.95
2019-01-04T18:57:31.753Z,37.67
2019-01-04T19:02:36.354Z,36.67
2019-01-04T19:07:40.836Z,37.47
2019-01-04T19:12:50.076Z,39.17
2019-01-04T19:17:54.454Z,41.77
2019-01-04T19:22:58.909Z,40.97
2019-01-04T19:28:11.243Z,40.47
2019-01-04T19:33:21.371Z,40.93
2019-01-04T19:38:25.919Z,50.97
2019-01-04T19:43:30.330Z,42.47
2019-01-04T19:48:34.723Z,41.50
2019-01-04T19:53:38.871Z,43.83
2019-01-04T19:58:43.249Z,40.70
2019-01-04T20:03:47.770Z,42.73
2019-01-04T20:09:40.898Z,42.73
2019-01-04T20:15:18.359Z,45.77
2019-01-04T20:20:24.375Z,49.30
2019-01-04T20:25:46.601Z,48.43
2019-01-04T20:30:55.332Z,46.23
2019-01-04T20:36:04.347Z,45.47
2019-01-04T20:41:13.435Z,46.53
2019-01-04T20:46:22.102Z,46.33
2019-01-04T20:51:30.889Z,47.63
2019-01-04T20:56:54.970Z,46.40
2019-01-04T21:02:17.974Z,46.50
2019-01-04T21:07:24.004Z,46.43
2019-01-04T21:12:38.478Z,49.60
2019-01-04T21:17:49.871Z,49.95
2019-01-04T21:23:24.311Z,47.00
2019-01-04T21:28:32.953Z,46.50
2019-01-04T21:33:38.942Z,46.97
2019-01-04T21:38:59.617Z,45.63
2019-01-04T21:44:21.696Z,48.10
2019-01-04T21:49:37.055Z,48.23
2019-01-04T21:54:42.756Z,45.10
2019-01-04T21:59:54.390Z,46.80
2019-01-04T22:05:16.904Z,45.40
2019-01-04T22:10:38.738Z,45.07
2019-01-04T22:15:50.328Z,45.40
2019-01-04T22:21:12.499Z,42.77
2019-01-04T22:26:34.636Z,44.20
2019-01-04T22:31:55.537Z,44.50
2019-01-04T22:37:07.234Z,43.63
2019-01-04T22:42:29.974Z,42.37
2019-01-04T22:47:38.469Z,44.90
2019-01-04T22:53:00.172Z,46.80
2019-01-04T22:58:17.905Z,45.77
2019-01-04T23:03:23.867Z,44.53
2019-01-04T23:08:30.142Z,45.73
2019-01-04T23:13:41.397Z,44.73
2019-01-04T23:19:05.422Z,44.00
2019-01-04T23:24:17.303Z,45.57
2019-01-04T23:29:25.858Z,45.27
2019-01-04T23:34:47.944Z,46.90
2019-01-04T23:40:02.176Z,44.83
2019-01-04T23:45:08.639Z,45.10
2019-01-04T23:50:33.131Z,45.10
2019-01-04T23:55:54.434Z,44.20
